createdAt,value
2022-07-31T00:38:28.163Z,18.50
2022-07-31T00:40:55.343Z,18.40
2022-07-31T00:43:22.428Z,18.30
2022-07-31T00:45:56.377Z,18.20
2022-07-31T00:48:27.718Z,18.20
2022-07-31T00:50:55.827Z,18.30
2022-07-31T00:53:22.923Z,18.30
2022-07-31T00:55:52.964Z,18.30
2022-07-31T00:58:20.863Z,18.20
2022-07-31T01:00:48.194Z,18.20
2022-07-31T01:03:16.463Z,18.30
2022-07-31T01:05:43.483Z,18.20
2022-07-31T01:08:10.724Z,18.30
2022-07-31T01:10:59.344Z,18.20
2022-07-31T01:13:39.696Z,18.20
2022-07-31T01:16:09.244Z,18.20
2022-07-31T01:18:38.484Z,18.10
2022-07-31T01:21:08.794Z,18.10
2022-07-31T01:24:03.883Z,18.10
2022-07-31T01:26:37.684Z,18.10
2022-07-31T01:29:16.583Z,18.00
2022-07-31T01:31:52.744Z,18.00
2022-07-31T01:34:45.006Z,18.00
2022-07-31T01:37:20.849Z,18.00
2022-07-31T01:40:04.803Z,18.00
2022-07-31T01:42:34.925Z,18.10
2022-07-31T01:45:04.424Z,18.10
2022-07-31T01:47:33.384Z,18.10
2022-07-31T01:50:04.974Z,18.00
2022-07-31T01:52:33.744Z,18.00
2022-07-31T01:55:02.044Z,18.00
2022-07-31T01:57:30.449Z,17.90
2022-07-31T02:00:02.137Z,17.90
2022-07-31T02:02:31.027Z,17.80
2022-07-31T02:04:58.404Z,17.70
2022-07-31T02:07:27.264Z,17.70
2022-07-31T02:09:58.772Z,17.60
2022-07-31T02:12:33.885Z,17.60
2022-07-31T02:15:06.744Z,17.60
2022-07-31T02:17:35.145Z,17.60
2022-07-31T02:20:05.910Z,17.60
2022-07-31T02:22:34.764Z,17.50
2022-07-31T02:25:03.131Z,17.50
2022-07-31T02:27:55.424Z,17.60
2022-07-31T02:30:18.784Z,17.40
2022-07-31T02:32:48.626Z,17.40
2022-07-31T02:35:17.746Z,17.50
2022-07-31T02:37:46.397Z,17.60
2022-07-31T02:40:15.507Z,17.60
2022-07-31T02:42:43.401Z,17.60
2022-07-31T02:45:11.007Z,17.60
2022-07-31T02:47:39.044Z,17.60
2022-07-31T02:50:07.466Z,17.60
2022-07-31T02:52:35.141Z,17.60
2022-07-31T02:55:03.246Z,17.60
2022-07-31T02:57:30.347Z,17.60
2022-07-31T02:59:57.373Z,17.50
2022-07-31T03:02:24.546Z,17.40
2022-07-31T03:05:04.369Z,17.40
2022-07-31T03:07:31.635Z,17.30
2022-07-31T03:09:58.950Z,17.40
2022-07-31T03:12:26.348Z,17.40
2022-07-31T03:14:55.378Z,17.30
2022-07-31T03:17:22.669Z,17.30
2022-07-31T03:19:49.891Z,17.30
2022-07-31T03:22:17.012Z,17.30
2022-07-31T03:24:44.792Z,17.20
2022-07-31T03:27:11.784Z,17.20
2022-07-31T03:29:43.715Z,17.20
2022-07-31T03:32:11.083Z,17.20
2022-07-31T03:34:38.203Z,17.30
2022-07-31T03:37:05.143Z,17.30
2022-07-31T03:39:32.148Z,17.30
2022-07-31T03:41:59.509Z,17.10
2022-07-31T03:44:26.926Z,17.10
2022-07-31T03:46:54.523Z,17.10
2022-07-31T03:49:23.161Z,17.10
2022-07-31T03:51:50.335Z,17.20
2022-07-31T03:54:17.504Z,17.20
2022-07-31T03:56:48.507Z,17.10
2022-07-31T03:59:16.954Z,17.10
2022-07-31T04:01:56.900Z,17.10
2022-07-31T04:04:25.692Z,17.10
2022-07-31T04:06:53.105Z,17.00
2022-07-31T04:09:22.144Z,17.00
2022-07-31T04:11:49.288Z,16.90
2022-07-31T04:14:16.427Z,16.80
2022-07-31T04:16:43.443Z,16.80
2022-07-31T04:19:10.844Z,16.90
2022-07-31T04:21:38.001Z,16.80
2022-07-31T04:24:05.472Z,16.80
2022-07-31T04:26:32.579Z,16.90
2022-07-31T04:29:00.192Z,16.90
2022-07-31T04:31:27.281Z,16.90
2022-07-31T04:33:56.835Z,16.90
2022-07-31T04:36:30.430Z,16.90
2022-07-31T04:38:59.189Z,16.80
2022-07-31T04:41:26.765Z,16.90
2022-07-31T04:43:56.233Z,16.90
2022-07-31T04:46:23.528Z,16.90
2022-07-31T04:48:50.812Z,16.90
2022-07-31T04:51:22.531Z,16.80
2022-07-31T04:53:50.992Z,16.90
2022-07-31T04:56:34.321Z,16.90
2022-07-31T04:59:06.350Z,16.90
2022-07-31T05:01:34.525Z,16.90
2022-07-31T05:04:01.902Z,16.80
2022-07-31T05:06:36.571Z,16.80
2022-07-31T05:09:09.014Z,16.80
2022-07-31T05:11:37.996Z,16.90
2022-07-31T05:14:06.789Z,16.90
2022-07-31T05:16:35.684Z,16.90
2022-07-31T05:19:03.920Z,16.90
2022-07-31T05:21:31.023Z,16.90
2022-07-31T05:24:01.295Z,16.90
2022-07-31T05:26:30.038Z,16.80
2022-07-31T05:28:58.959Z,16.80
2022-07-31T05:31:27.001Z,16.80
2022-07-31T05:33:54.441Z,16.90
2022-07-31T05:36:22.134Z,17.00
2022-07-31T05:38:49.375Z,16.90
2022-07-31T05:41:16.655Z,17.00
2022-07-31T05:43:43.722Z,17.00
2022-07-31T05:46:14.139Z,17.00
2022-07-31T05:48:41.664Z,17.10
2022-07-31T05:51:10.603Z,17.20
2022-07-31T05:53:37.945Z,17.20
2022-07-31T05:56:05.924Z,17.20
2022-07-31T05:58:34.266Z,17.30
2022-07-31T06:01:02.545Z,17.40
2022-07-31T06:03:30.204Z,17.40
2022-07-31T06:05:57.322Z,17.50
2022-07-31T06:08:25.364Z,17.50
2022-07-31T06:10:52.382Z,17.50
2022-07-31T06:13:23.481Z,17.50
2022-07-31T06:15:50.580Z,17.60
2022-07-31T06:18:17.706Z,17.70
2022-07-31T06:20:44.939Z,17.70
2022-07-31T06:23:22.467Z,17.80
2022-07-31T06:25:50.274Z,17.80
2022-07-31T06:28:17.466Z,18.00
2022-07-31T06:30:44.591Z,18.00
2022-07-31T06:33:16.498Z,18.00
2022-07-31T06:35:51.971Z,18.10
2022-07-31T06:38:19.889Z,18.20
2022-07-31T06:40:46.969Z,18.30
2022-07-31T06:43:13.955Z,18.30
2022-07-31T06:45:51.397Z,18.40
2022-07-31T06:48:19.363Z,18.40
2022-07-31T06:50:47.215Z,18.50
2022-07-31T06:53:14.274Z,18.60
2022-07-31T06:55:44.591Z,18.70
2022-07-31T06:58:11.874Z,18.70
2022-07-31T07:00:38.934Z,18.80
2022-07-31T07:03:06.037Z,18.90
2022-07-31T07:05:33.097Z,19.00
2022-07-31T07:08:02.947Z,19.00
2022-07-31T07:10:29.934Z,19.10
2022-07-31T07:12:56.926Z,19.10
2022-07-31T07:15:23.956Z,19.20
2022-07-31T07:17:50.914Z,19.20
2022-07-31T07:20:17.938Z,19.30
2022-07-31T07:22:45.034Z,19.40
2022-07-31T07:25:12.816Z,19.40
2022-07-31T07:27:39.972Z,19.40
2022-07-31T07:30:07.634Z,19.50
2022-07-31T07:32:34.874Z,19.50
2022-07-31T07:35:04.174Z,19.60
2022-07-31T07:37:31.293Z,19.70
2022-07-31T07:40:07.734Z,19.80
2022-07-31T07:42:34.870Z,19.80
2022-07-31T07:45:06.681Z,19.90
2022-07-31T07:47:54.138Z,19.90
2022-07-31T07:50:26.889Z,20.00
2022-07-31T07:52:56.153Z,20.00
2022-07-31T07:55:23.606Z,20.10
2022-07-31T07:57:50.865Z,20.20
2022-07-31T08:00:18.067Z,20.20
2022-07-31T08:03:46.765Z,20.30
2022-07-31T08:05:33.410Z,20.30
2022-07-31T08:08:03.451Z,20.40
2022-07-31T08:10:30.654Z,20.50
2022-07-31T08:12:58.352Z,20.50
2022-07-31T08:15:26.051Z,20.60
2022-07-31T08:17:53.191Z,20.70
2022-07-31T08:20:20.531Z,20.80
2022-07-31T08:22:47.641Z,20.80
2022-07-31T08:25:15.247Z,20.80
2022-07-31T08:27:42.521Z,20.70
2022-07-31T08:30:10.133Z,20.80
2022-07-31T08:32:38.720Z,20.90
2022-07-31T08:50:16.304Z,21.30
2022-07-31T08:52:45.813Z,21.40
2022-07-31T08:55:54.962Z,21.50
2022-07-31T08:58:00.443Z,21.50
2022-07-31T09:00:28.950Z,21.50
2022-07-31T09:02:56.302Z,21.50
2022-07-31T09:05:25.202Z,21.50
2022-07-31T09:07:52.482Z,21.50
2022-07-31T09:10:28.142Z,21.60
2022-07-31T09:12:57.301Z,21.70
2022-07-31T09:15:30.222Z,21.70
2022-07-31T09:17:57.702Z,21.80
2022-07-31T09:20:27.622Z,21.80
2022-07-31T09:23:05.922Z,21.80
2022-07-31T09:25:33.182Z,21.80
2022-07-31T09:28:07.783Z,21.80
2022-07-31T09:30:34.982Z,21.90
2022-07-31T09:33:19.082Z,22.00
2022-07-31T09:35:52.821Z,22.10
2022-07-31T09:38:20.682Z,22.10
2022-07-31T09:40:57.255Z,22.10
2022-07-31T09:43:25.904Z,22.10
2022-07-31T09:46:01.903Z,22.10
2022-07-31T09:48:29.522Z,22.10
2022-07-31T09:51:02.123Z,22.20
2022-07-31T09:53:43.932Z,22.20
2022-07-31T09:56:12.772Z,22.30
2022-07-31T09:58:41.413Z,22.40
2022-07-31T10:01:13.135Z,22.50
2022-07-31T10:03:41.262Z,22.50
2022-07-31T10:06:16.363Z,22.60
2022-07-31T10:08:46.357Z,22.60
2022-07-31T10:11:19.982Z,22.50
2022-07-31T10:13:50.041Z,22.60
2022-07-31T10:16:17.421Z,22.60
2022-07-31T23:21:02.636Z,21.10
2022-07-31T23:23:35.324Z,21.10
2022-07-31T23:26:02.344Z,21.10
2022-07-31T23:28:29.444Z,21.00
2022-07-31T23:30:56.557Z,21.00
2022-07-31T23:33:23.626Z,21.00
2022-07-31T23:35:50.739Z,21.00
2022-07-31T23:38:17.823Z,21.00
2022-07-31T23:40:44.921Z,21.00
2022-07-31T23:43:11.971Z,20.90
2022-07-31T23:45:39.102Z,20.80
2022-07-31T23:48:07.988Z,20.80
2022-07-31T23:50:42.087Z,20.60
2022-07-31T23:53:09.358Z,20.60
2022-07-31T23:55:39.143Z,20.60
2022-07-31T23:58:10.192Z,20.60
